sensor_id;sensor_type;location;lat;lon;timestamp;temperature;humidity
39033;DHT22;24794;51.982;5.878;2024-03-02T00:00:29;9.80;99.90
39033;DHT22;24794;51.982;5.878;2024-03-02T00:01:29;9.80;99.90
39033;DHT22;24794;51.982;5.878;2024-03-02T00:02:30;9.80;99.90
39033;DHT22;24794;51.982;5.878;2024-03-02T00:03:30;9.80;99.90
39033;DHT22;24794;51.982;5.878;2024-03-02T00:04:31;9.80;99.90
39033;DHT22;24794;51.982;5.878;2024-03-02T00:05:31;9.80;99.90
39033;DHT22;24794;51.982;5.878;2024-03-02T00:06:32;9.80;99.90
39033;DHT22;24794;51.982;5.878;2024-03-02T00:07:33;9.80;99.90
39033;DHT22;24794;51.982;5.878;2024-03-02T00:08:34;9.80;99.90
39033;DHT22;24794;51.982;5.878;2024-03-02T00:09:34;9.80;99.90
39033;DHT22;24794;51.982;5.878;2024-03-02T00:10:37;9.80;99.90
39033;DHT22;24794;51.982;5.878;2024-03-02T00:11:40;9.80;99.90
39033;DHT22;24794;51.982;5.878;2024-03-02T00:12:41;9.80;99.90
39033;DHT22;24794;51.982;5.878;2024-03-02T00:13:42;9.80;99.90
39033;DHT22;24794;51.982;5.878;2024-03-02T00:14:42;9.80;99.90
39033;DHT22;24794;51.982;5.878;2024-03-02T00:15:47;9.80;99.90
39033;DHT22;24794;51.982;5.878;2024-03-02T00:16:48;9.80;99.90
39033;DHT22;24794;51.982;5.878;2024-03-02T00:17:53;9.80;99.90
39033;DHT22;24794;51.982;5.878;2024-03-02T00:18:54;9.80;99.90
39033;DHT22;24794;51.982;5.878;2024-03-02T00:19:54;9.80;99.90
39033;DHT22;24794;51.982;5.878;2024-03-02T00:20:56;9.80;99.90
39033;DHT22;24794;51.982;5.878;2024-03-02T00:22:01;9.80;99.90
39033;DHT22;24794;51.982;5.878;2024-03-02T00:23:06;9.80;99.90
39033;DHT22;24794;51.982;5.878;2024-03-02T00:24:24;9.80;99.90
39033;DHT22;24794;51.982;5.878;2024-03-02T00:25:26;9.80;99.90
39033;DHT22;24794;51.982;5.878;2024-03-02T00:26:27;9.80;99.90
39033;DHT22;24794;51.982;5.878;2024-03-02T00:27:28;9.80;99.90
39033;DHT22;24794;51.982;5.878;2024-03-02T00:28:34;9.80;99.90
39033;DHT22;24794;51.982;5.878;2024-03-02T00:29:35;9.80;99.90
39033;DHT22;24794;51.982;5.878;2024-03-02T00:31:42;9.80;99.90
39033;DHT22;24794;51.982;5.878;2024-03-02T00:32:43;9.80;99.90
39033;DHT22;24794;51.982;5.878;2024-03-02T00:33:45;9.80;99.90
39033;DHT22;24794;51.982;5.878;2024-03-02T00:34:46;9.80;99.90
39033;DHT22;24794;51.982;5.878;2024-03-02T00:35:47;9.80;99.90
39033;DHT22;24794;51.982;5.878;2024-03-02T00:36:47;9.80;99.90
39033;DHT22;24794;51.982;5.878;2024-03-02T00:37:48;9.80;99.90
39033;DHT22;24794;51.982;5.878;2024-03-02T00:38:51;9.80;99.90
39033;DHT22;24794;51.982;5.878;2024-03-02T00:39:51;9.80;99.90
39033;DHT22;24794;51.982;5.878;2024-03-02T00:40:52;9.80;99.90
39033;DHT22;24794;51.982;5.878;2024-03-02T00:41:53;9.80;99.90
39033;DHT22;24794;51.982;5.878;2024-03-02T00:42:53;9.80;99.90
39033;DHT22;24794;51.982;5.878;2024-03-02T00:44:00;9.90;99.90
39033;DHT22;24794;51.982;5.878;2024-03-02T00:45:01;9.80;99.90
39033;DHT22;24794;51.982;5.878;2024-03-02T00:46:07;9.90;99.90
39033;DHT22;24794;51.982;5.878;2024-03-02T00:47:08;9.90;99.90
39033;DHT22;24794;51.982;5.878;2024-03-02T00:48:08;9.90;99.90
39033;DHT22;24794;51.982;5.878;2024-03-02T00:49:23;9.90;99.90
39033;DHT22;24794;51.982;5.878;2024-03-02T00:50:24;9.80;99.90
39033;DHT22;24794;51.982;5.878;2024-03-02T00:51:27;9.80;99.90
39033;DHT22;24794;51.982;5.878;2024-03-02T00:52:28;9.90;99.90
39033;DHT22;24794;51.982;5.878;2024-03-02T00:53:30;9.90;99.90
39033;DHT22;24794;51.982;5.878;2024-03-02T00:54:31;9.90;99.90
39033;DHT22;24794;51.982;5.878;2024-03-02T00:55:36;9.90;99.90
39033;DHT22;24794;51.982;5.878;2024-03-02T00:56:37;9.90;99.90
39033;DHT22;24794;51.982;5.878;2024-03-02T00:57:38;9.90;99.90
39033;DHT22;24794;51.982;5.878;2024-03-02T00:58:40;9.90;99.90
39033;DHT22;24794;51.982;5.878;2024-03-02T00:59:40;9.90;99.90
39033;DHT22;24794;51.982;5.878;2024-03-02T01:00:41;9.90;99.90
39033;DHT22;24794;51.982;5.878;2024-03-02T01:01:41;9.90;99.90
39033;DHT22;24794;51.982;5.878;2024-03-02T01:02:43;9.90;99.90
39033;DHT22;24794;51.982;5.878;2024-03-02T01:03:45;9.90;99.90
39033;DHT22;24794;51.982;5.878;2024-03-02T01:04:46;9.90;99.90
39033;DHT22;24794;51.982;5.878;2024-03-02T01:05:47;9.90;99.90
39033;DHT22;24794;51.982;5.878;2024-03-02T01:06:47;9.90;99.90
39033;DHT22;24794;51.982;5.878;2024-03-02T01:07:48;9.90;99.90
39033;DHT22;24794;51.982;5.878;2024-03-02T01:08:49;9.90;99.90
39033;DHT22;24794;51.982;5.878;2024-03-02T01:09:51;10.00;99.90
39033;DHT22;24794;51.982;5.878;2024-03-02T01:10:52;10.00;99.90
39033;DHT22;24794;51.982;5.878;2024-03-02T01:11:52;10.00;99.90
39033;DHT22;24794;51.982;5.878;2024-03-02T01:12:53;10.00;99.90
39033;DHT22;24794;51.982;5.878;2024-03-02T01:13:54;10.00;99.90
39033;DHT22;24794;51.982;5.878;2024-03-02T01:14:54;10.00;99.90
39033;DHT22;24794;51.982;5.878;2024-03-02T01:15:55;10.00;99.90
39033;DHT22;24794;51.982;5.878;2024-03-02T01:16:56;10.00;99.90
39033;DHT22;24794;51.982;5.878;2024-03-02T01:17:56;10.00;99.90
39033;DHT22;24794;51.982;5.878;2024-03-02T01:18:57;10.00;99.90
39033;DHT22;24794;51.982;5.878;2024-03-02T01:19:58;10.00;99.90
39033;DHT22;24794;51.982;5.878;2024-03-02T01:20:58;10.00;99.90
39033;DHT22;24794;51.982;5.878;2024-03-02T01:21:59;10.00;99.90
39033;DHT22;24794;51.982;5.878;2024-03-02T01:22:59;10.00;99.90
39033;DHT22;24794;51.982;5.878;2024-03-02T01:24:00;10.00;99.90
39033;DHT22;24794;51.982;5.878;2024-03-02T01:25:02;9.90;99.90
39033;DHT22;24794;51.982;5.878;2024-03-02T01:26:02;9.90;99.90
39033;DHT22;24794;51.982;5.878;2024-03-02T01:27:03;9.90;99.90
39033;DHT22;24794;51.982;5.878;2024-03-02T01:28:04;9.80;99.90
39033;DHT22;24794;51.982;5.878;2024-03-02T01:29:05;9.80;99.90
39033;DHT22;24794;51.982;5.878;2024-03-02T01:30:06;9.80;99.90
39033;DHT22;24794;51.982;5.878;2024-03-02T01:31:07;9.80;99.90
39033;DHT22;24794;51.982;5.878;2024-03-02T01:32:07;9.70;99.90
39033;DHT22;24794;51.982;5.878;2024-03-02T01:33:08;9.70;99.90
39033;DHT22;24794;51.982;5.878;2024-03-02T01:34:09;9.70;99.90
39033;DHT22;24794;51.982;5.878;2024-03-02T01:35:09;9.70;99.90
39033;DHT22;24794;51.982;5.878;2024-03-02T01:36:10;9.70;99.90
39033;DHT22;24794;51.982;5.878;2024-03-02T01:37:10;9.70;99.90
39033;DHT22;24794;51.982;5.878;2024-03-02T01:38:11;9.70;99.90
39033;DHT22;24794;51.982;5.878;2024-03-02T01:39:12;9.70;99.90
39033;DHT22;24794;51.982;5.878;2024-03-02T01:40:12;9.70;99.90
39033;DHT22;24794;51.982;5.878;2024-03-02T01:41:13;9.70;99.90
39033;DHT22;24794;51.982;5.878;2024-03-02T01:42:13;9.60;99.90
39033;DHT22;24794;51.982;5.878;2024-03-02T01:43:14;9.70;99.90
39033;DHT22;24794;51.982;5.878;2024-03-02T01:44:15;9.60;99.90
39033;DHT22;24794;51.982;5.878;2024-03-02T01:45:15;9.60;99.90
39033;DHT22;24794;51.982;5.878;2024-03-02T01:46:16;9.60;99.90
39033;DHT22;24794;51.982;5.878;2024-03-02T01:47:16;9.60;99.90
39033;DHT22;24794;51.982;5.878;2024-03-02T01:48:17;9.60;99.90
39033;DHT22;24794;51.982;5.878;2024-03-02T01:49:17;9.60;99.90
39033;DHT22;24794;51.982;5.878;2024-03-02T01:50:29;9.60;99.90
39033;DHT22;24794;51.982;5.878;2024-03-02T01:51:31;9.60;99.90
39033;DHT22;24794;51.982;5.878;2024-03-02T01:52:32;9.60;99.90
39033;DHT22;24794;51.982;5.878;2024-03-02T01:53:32;9.60;99.90
39033;DHT22;24794;51.982;5.878;2024-03-02T01:54:33;9.60;99.90
39033;DHT22;24794;51.982;5.878;2024-03-02T01:55:34;9.60;99.90
39033;DHT22;24794;51.982;5.878;2024-03-02T01:56:35;9.60;99.90
39033;DHT22;24794;51.982;5.878;2024-03-02T01:57:36;9.60;99.90
39033;DHT22;24794;51.982;5.878;2024-03-02T01:58:36;9.60;99.90
39033;DHT22;24794;51.982;5.878;2024-03-02T01:59:37;9.60;99.90
39033;DHT22;24794;51.982;5.878;2024-03-02T02:00:38;9.60;99.90
39033;DHT22;24794;51.982;5.878;2024-03-02T02:01:38;9.60;99.90
39033;DHT22;24794;51.982;5.878;2024-03-02T02:02:39;9.60;99.90
39033;DHT22;24794;51.982;5.878;2024-03-02T02:03:40;9.60;99.90
39033;DHT22;24794;51.982;5.878;2024-03-02T02:04:41;9.60;99.90
39033;DHT22;24794;51.982;5.878;2024-03-02T02:05:44;9.60;99.90
39033;DHT22;24794;51.982;5.878;2024-03-02T02:06:46;9.60;99.90
39033;DHT22;24794;51.982;5.878;2024-03-02T02:07:46;9.60;99.90
39033;DHT22;24794;51.982;5.878;2024-03-02T02:08:47;9.70;99.90
39033;DHT22;24794;51.982;5.878;2024-03-02T02:09:48;9.70;99.90
39033;DHT22;24794;51.982;5.878;2024-03-02T02:10:48;9.70;99.90
39033;DHT22;24794;51.982;5.878;2024-03-02T02:11:50;9.70;99.90
39033;DHT22;24794;51.982;5.878;2024-03-02T02:12:51;9.70;99.90
39033;DHT22;24794;51.982;5.878;2024-03-02T02:13:51;9.70;99.90
39033;DHT22;24794;51.982;5.878;2024-03-02T02:14:52;9.70;99.90
39033;DHT22;24794;51.982;5.878;2024-03-02T02:15:53;9.70;99.90
39033;DHT22;24794;51.982;5.878;2024-03-02T02:16:53;9.70;99.90
39033;DHT22;24794;51.982;5.878;2024-03-02T02:17:55;9.70;99.90
39033;DHT22;24794;51.982;5.878;2024-03-02T02:18:55;9.70;99.90
39033;DHT22;24794;51.982;5.878;2024-03-02T02:19:56;9.70;99.90
39033;DHT22;24794;51.982;5.878;2024-03-02T02:20:56;9.70;99.90
39033;DHT22;24794;51.982;5.878;2024-03-02T02:21:57;9.70;99.90
39033;DHT22;24794;51.982;5.878;2024-03-02T02:23:04;9.70;99.90
39033;DHT22;24794;51.982;5.878;2024-03-02T02:24:11;9.70;99.90
39033;DHT22;24794;51.982;5.878;2024-03-02T02:25:13;9.70;99.90
39033;DHT22;24794;51.982;5.878;2024-03-02T02:26:14;9.70;99.90
39033;DHT22;24794;51.982;5.878;2024-03-02T02:27:14;9.60;99.90
39033;DHT22;24794;51.982;5.878;2024-03-02T02:28:15;9.60;99.90
39033;DHT22;24794;51.982;5.878;2024-03-02T02:29:16;9.60;99.90
39033;DHT22;24794;51.982;5.878;2024-03-02T02:30:25;9.60;99.90
39033;DHT22;24794;51.982;5.878;2024-03-02T02:31:26;9.60;99.90
39033;DHT22;24794;51.982;5.878;2024-03-02T02:32:26;9.60;99.90
39033;DHT22;24794;51.982;5.878;2024-03-02T02:33:27;9.60;99.90
39033;DHT22;24794;51.982;5.878;2024-03-02T02:34:28;9.60;99.90
39033;DHT22;24794;51.982;5.878;2024-03-02T02:35:28;9.60;99.90
39033;DHT22;24794;51.982;5.878;2024-03-02T02:36:29;9.60;99.90
39033;DHT22;24794;51.982;5.878;2024-03-02T02:37:30;9.60;99.90
39033;DHT22;24794;51.982;5.878;2024-03-02T02:38:33;9.60;99.90
39033;DHT22;24794;51.982;5.878;2024-03-02T02:39:35;9.60;99.90
39033;DHT22;24794;51.982;5.878;2024-03-02T02:40:35;9.60;99.90
39033;DHT22;24794;51.982;5.878;2024-03-02T02:41:36;9.60;99.90
39033;DHT22;24794;51.982;5.878;2024-03-02T02:42:37;9.60;99.90
39033;DHT22;24794;51.982;5.878;2024-03-02T02:43:37;9.60;99.90
39033;DHT22;24794;51.982;5.878;2024-03-02T02:44:39;9.70;99.90
39033;DHT22;24794;51.982;5.878;2024-03-02T02:45:40;9.70;99.90
39033;DHT22;24794;51.982;5.878;2024-03-02T02:46:41;9.60;99.90
39033;DHT22;24794;51.982;5.878;2024-03-02T02:47:42;9.60;99.90
39033;DHT22;24794;51.982;5.878;2024-03-02T02:48:42;9.60;99.90
39033;DHT22;24794;51.982;5.878;2024-03-02T02:49:43;9.60;99.90
39033;DHT22;24794;51.982;5.878;2024-03-02T02:50:43;9.60;99.90
39033;DHT22;24794;51.982;5.878;2024-03-02T02:51:44;9.60;99.90
39033;DHT22;24794;51.982;5.878;2024-03-02T02:52:44;9.60;99.90
39033;DHT22;24794;51.982;5.878;2024-03-02T02:53:45;9.60;99.90
39033;DHT22;24794;51.982;5.878;2024-03-02T02:54:45;9.60;99.90
39033;DHT22;24794;51.982;5.878;2024-03-02T02:55:46;9.60;99.90
39033;DHT22;24794;51.982;5.878;2024-03-02T02:56:47;9.60;99.90
39033;DHT22;24794;51.982;5.878;2024-03-02T02:57:48;9.60;99.90
39033;DHT22;24794;51.982;5.878;2024-03-02T02:58:49;9.60;99.90
39033;DHT22;24794;51.982;5.878;2024-03-02T02:59:49;9.60;99.90
39033;DHT22;24794;51.982;5.878;2024-03-02T03:00:50;9.60;99.90
39033;DHT22;24794;51.982;5.878;2024-03-02T03:01:51;9.60;99.90
39033;DHT22;24794;51.982;5.878;2024-03-02T03:02:52;9.50;99.90
39033;DHT22;24794;51.982;5.878;2024-03-02T03:03:52;9.50;99.90
39033;DHT22;24794;51.982;5.878;2024-03-02T03:04:53;9.50;99.90
39033;DHT22;24794;51.982;5.878;2024-03-02T03:05:53;9.50;99.90
39033;DHT22;24794;51.982;5.878;2024-03-02T03:06:54;9.50;99.90
39033;DHT22;24794;51.982;5.878;2024-03-02T03:07:54;9.50;99.90
39033;DHT22;24794;51.982;5.878;2024-03-02T03:08:55;9.50;99.90
39033;DHT22;24794;51.982;5.878;2024-03-02T03:09:55;9.50;99.90
39033;DHT22;24794;51.982;5.878;2024-03-02T03:10:56;9.50;99.90
39033;DHT22;24794;51.982;5.878;2024-03-02T03:11:57;9.50;99.90
39033;DHT22;24794;51.982;5.878;2024-03-02T03:12:57;9.40;99.90
39033;DHT22;24794;51.982;5.878;2024-03-02T03:13:58;9.40;99.90
39033;DHT22;24794;51.982;5.878;2024-03-02T03:15:00;9.40;99.90
39033;DHT22;24794;51.982;5.878;2024-03-02T03:16:01;9.40;99.90
39033;DHT22;24794;51.982;5.878;2024-03-02T03:17:01;9.40;99.90
39033;DHT22;24794;51.982;5.878;2024-03-02T03:18:03;9.40;99.90
39033;DHT22;24794;51.982;5.878;2024-03-02T03:19:04;9.40;99.90
39033;DHT22;24794;51.982;5.878;2024-03-02T03:20:05;9.30;99.90
39033;DHT22;24794;51.982;5.878;2024-03-02T03:21:06;9.30;99.90
39033;DHT22;24794;51.982;5.878;2024-03-02T03:22:06;9.30;99.90
39033;DHT22;24794;51.982;5.878;2024-03-02T03:23:07;9.30;99.90
39033;DHT22;24794;51.982;5.878;2024-03-02T03:24:07;9.20;99.90
39033;DHT22;24794;51.982;5.878;2024-03-02T03:25:08;9.20;99.90
39033;DHT22;24794;51.982;5.878;2024-03-02T03:26:09;9.20;99.90
39033;DHT22;24794;51.982;5.878;2024-03-02T03:27:10;9.20;99.90
39033;DHT22;24794;51.982;5.878;2024-03-02T03:28:12;9.20;99.90
39033;DHT22;24794;51.982;5.878;2024-03-02T03:29:12;9.20;99.90
39033;DHT22;24794;51.982;5.878;2024-03-02T03:30:13;9.20;99.90
39033;DHT22;24794;51.982;5.878;2024-03-02T03:31:13;9.20;99.90
39033;DHT22;24794;51.982;5.878;2024-03-02T03:32:14;9.20;99.90
39033;DHT22;24794;51.982;5.878;2024-03-02T03:33:14;9.10;99.90
39033;DHT22;24794;51.982;5.878;2024-03-02T03:34:15;9.10;99.90
39033;DHT22;24794;51.982;5.878;2024-03-02T03:35:16;9.10;99.90
39033;DHT22;24794;51.982;5.878;2024-03-02T03:36:17;9.10;99.90
39033;DHT22;24794;51.982;5.878;2024-03-02T03:37:17;9.10;99.90
39033;DHT22;24794;51.982;5.878;2024-03-02T03:38:18;9.10;99.90
39033;DHT22;24794;51.982;5.878;2024-03-02T03:39:18;9.00;99.90
39033;DHT22;24794;51.982;5.878;2024-03-02T03:40:19;9.00;99.90
39033;DHT22;24794;51.982;5.878;2024-03-02T03:41:19;9.00;99.90
39033;DHT22;24794;51.982;5.878;2024-03-02T03:42:20;9.00;99.90
39033;DHT22;24794;51.982;5.878;2024-03-02T03:43:20;9.00;99.90
39033;DHT22;24794;51.982;5.878;2024-03-02T03:44:21;9.00;99.90
39033;DHT22;24794;51.982;5.878;2024-03-02T03:45:21;9.00;99.90
39033;DHT22;24794;51.982;5.878;2024-03-02T03:46:22;9.00;99.90
39033;DHT22;24794;51.982;5.878;2024-03-02T03:47:23;9.00;99.90
39033;DHT22;24794;51.982;5.878;2024-03-02T03:48:23;9.00;99.90
39033;DHT22;24794;51.982;5.878;2024-03-02T03:49:25;9.00;99.90
39033;DHT22;24794;51.982;5.878;2024-03-02T03:50:25;9.00;99.90
39033;DHT22;24794;51.982;5.878;2024-03-02T03:51:26;8.90;99.90
39033;DHT22;24794;51.982;5.878;2024-03-02T03:52:26;9.00;99.90
39033;DHT22;24794;51.982;5.878;2024-03-02T03:53:27;8.90;99.90
39033;DHT22;24794;51.982;5.878;2024-03-02T03:54:27;9.00;99.90
39033;DHT22;24794;51.982;5.878;2024-03-02T03:55:28;9.00;99.90
39033;DHT22;24794;51.982;5.878;2024-03-02T03:56:29;9.00;99.90
39033;DHT22;24794;51.982;5.878;2024-03-02T03:57:29;8.90;99.90
39033;DHT22;24794;51.982;5.878;2024-03-02T03:58:30;9.00;99.90
39033;DHT22;24794;51.982;5.878;2024-03-02T03:59:30;8.90;99.90
39033;DHT22;24794;51.982;5.878;2024-03-02T04:00:31;9.00;99.90
39033;DHT22;24794;51.982;5.878;2024-03-02T04:01:32;8.90;99.90
39033;DHT22;24794;51.982;5.878;2024-03-02T04:02:33;8.90;99.90
39033;DHT22;24794;51.982;5.878;2024-03-02T04:03:34;8.90;99.90
39033;DHT22;24794;51.982;5.878;2024-03-02T04:04:35;8.90;99.90
39033;DHT22;24794;51.982;5.878;2024-03-02T04:05:35;8.90;99.90
39033;DHT22;24794;51.982;5.878;2024-03-02T04:06:36;8.90;99.90
39033;DHT22;24794;51.982;5.878;2024-03-02T04:07:37;8.90;99.90
39033;DHT22;24794;51.982;5.878;2024-03-02T04:08:41;8.90;99.90
39033;DHT22;24794;51.982;5.878;2024-03-02T04:09:42;8.90;99.90
39033;DHT22;24794;51.982;5.878;2024-03-02T04:10:43;8.90;99.90
39033;DHT22;24794;51.982;5.878;2024-03-02T04:11:43;8.90;99.90
39033;DHT22;24794;51.982;5.878;2024-03-02T04:12:44;8.90;99.90
39033;DHT22;24794;51.982;5.878;2024-03-02T04:13:45;8.90;99.90
39033;DHT22;24794;51.982;5.878;2024-03-02T04:14:45;8.90;99.90
39033;DHT22;24794;51.982;5.878;2024-03-02T04:15:46;8.80;99.90
39033;DHT22;24794;51.982;5.878;2024-03-02T04:16:46;8.80;99.90
39033;DHT22;24794;51.982;5.878;2024-03-02T04:17:47;8.80;99.90
39033;DHT22;24794;51.982;5.878;2024-03-02T04:18:47;8.80;99.90
39033;DHT22;24794;51.982;5.878;2024-03-02T04:19:48;8.80;99.90
39033;DHT22;24794;51.982;5.878;2024-03-02T04:20:48;8.80;99.90
39033;DHT22;24794;51.982;5.878;2024-03-02T04:21:49;8.80;99.90
39033;DHT22;24794;51.982;5.878;2024-03-02T04:22:50;8.80;99.90
39033;DHT22;24794;51.982;5.878;2024-03-02T04:23:50;8.80;99.90
39033;DHT22;24794;51.982;5.878;2024-03-02T04:24:52;8.80;99.90
39033;DHT22;24794;51.982;5.878;2024-03-02T04:25:52;8.80;99.90
39033;DHT22;24794;51.982;5.878;2024-03-02T04:26:53;8.80;99.90
39033;DHT22;24794;51.982;5.878;2024-03-02T04:27:53;8.80;99.90
39033;DHT22;24794;51.982;5.878;2024-03-02T04:28:54;8.80;99.90
39033;DHT22;24794;51.982;5.878;2024-03-02T04:29:54;8.80;99.90
39033;DHT22;24794;51.982;5.878;2024-03-02T04:30:55;8.80;99.90
39033;DHT22;24794;51.982;5.878;2024-03-02T04:31:55;8.80;99.90
39033;DHT22;24794;51.982;5.878;2024-03-02T04:32:56;8.80;99.90
39033;DHT22;24794;51.982;5.878;2024-03-02T04:33:57;8.80;99.90
39033;DHT22;24794;51.982;5.878;2024-03-02T04:34:57;8.80;99.90
39033;DHT22;24794;51.982;5.878;2024-03-02T04:35:58;8.80;99.90
39033;DHT22;24794;51.982;5.878;2024-03-02T04:36:59;8.80;99.90
39033;DHT22;24794;51.982;5.878;2024-03-02T04:37:59;8.80;99.90
39033;DHT22;24794;51.982;5.878;2024-03-02T04:39:00;8.80;99.90
39033;DHT22;24794;51.982;5.878;2024-03-02T04:40:00;8.80;99.90
39033;DHT22;24794;51.982;5.878;2024-03-02T04:41:01;8.80;99.90
39033;DHT22;24794;51.982;5.878;2024-03-02T04:42:01;8.80;99.90
39033;DHT22;24794;51.982;5.878;2024-03-02T04:43:03;8.80;99.90
39033;DHT22;24794;51.982;5.878;2024-03-02T04:44:04;8.80;99.90
39033;DHT22;24794;51.982;5.878;2024-03-02T04:45:04;8.80;99.90
39033;DHT22;24794;51.982;5.878;2024-03-02T04:46:05;8.80;99.90
39033;DHT22;24794;51.982;5.878;2024-03-02T04:47:07;8.80;99.90
39033;DHT22;24794;51.982;5.878;2024-03-02T04:48:08;8.80;99.90
39033;DHT22;24794;51.982;5.878;2024-03-02T04:49:08;8.80;99.90
39033;DHT22;24794;51.982;5.878;2024-03-02T04:50:10;8.80;99.90
39033;DHT22;24794;51.982;5.878;2024-03-02T04:51:10;8.80;99.90
39033;DHT22;24794;51.982;5.878;2024-03-02T04:52:11;8.80;99.90
39033;DHT22;24794;51.982;5.878;2024-03-02T04:53:12;8.80;99.90
39033;DHT22;24794;51.982;5.878;2024-03-02T04:54:12;8.80;99.90
39033;DHT22;24794;51.982;5.878;2024-03-02T04:55:14;8.80;99.90
39033;DHT22;24794;51.982;5.878;2024-03-02T04:56:17;8.80;99.90
39033;DHT22;24794;51.982;5.878;2024-03-02T04:57:21;8.80;99.90
39033;DHT22;24794;51.982;5.878;2024-03-02T04:58:21;8.80;99.90
39033;DHT22;24794;51.982;5.878;2024-03-02T04:59:22;8.80;99.90
39033;DHT22;24794;51.982;5.878;2024-03-02T05:00:23;8.80;99.90
39033;DHT22;24794;51.982;5.878;2024-03-02T05:01:23;8.80;99.90
39033;DHT22;24794;51.982;5.878;2024-03-02T05:02:24;8.80;99.90
39033;DHT22;24794;51.982;5.878;2024-03-02T05:03:24;8.80;99.90
39033;DHT22;24794;51.982;5.878;2024-03-02T05:04:25;8.80;99.90
39033;DHT22;24794;51.982;5.878;2024-03-02T05:05:25;8.80;99.90
39033;DHT22;24794;51.982;5.878;2024-03-02T05:06:26;8.80;99.90
39033;DHT22;24794;51.982;5.878;2024-03-02T05:07:27;8.80;99.90
39033;DHT22;24794;51.982;5.878;2024-03-02T05:08:27;8.80;99.90
39033;DHT22;24794;51.982;5.878;2024-03-02T05:09:28;8.70;99.90
39033;DHT22;24794;51.982;5.878;2024-03-02T05:10:28;8.80;99.90
39033;DHT22;24794;51.982;5.878;2024-03-02T05:11:29;8.70;99.90
39033;DHT22;24794;51.982;5.878;2024-03-02T05:12:39;8.70;99.90
39033;DHT22;24794;51.982;5.878;2024-03-02T05:13:42;8.70;99.90
39033;DHT22;24794;51.982;5.878;2024-03-02T05:14:43;8.70;99.90
39033;DHT22;24794;51.982;5.878;2024-03-02T05:15:43;8.60;99.90
39033;DHT22;24794;51.982;5.878;2024-03-02T05:16:44;8.60;99.90
39033;DHT22;24794;51.982;5.878;2024-03-02T05:17:44;8.60;99.90
39033;DHT22;24794;51.982;5.878;2024-03-02T05:18:45;8.60;99.90
39033;DHT22;24794;51.982;5.878;2024-03-02T05:19:45;8.60;99.90
39033;DHT22;24794;51.982;5.878;2024-03-02T05:20:46;8.50;99.90
39033;DHT22;24794;51.982;5.878;2024-03-02T05:21:46;8.50;99.90
39033;DHT22;24794;51.982;5.878;2024-03-02T05:22:47;8.50;99.90
39033;DHT22;24794;51.982;5.878;2024-03-02T05:23:48;8.50;99.90
39033;DHT22;24794;51.982;5.878;2024-03-02T05:24:49;8.50;99.90
39033;DHT22;24794;51.982;5.878;2024-03-02T05:25:49;8.50;99.90
39033;DHT22;24794;51.982;5.878;2024-03-02T05:26:50;8.50;99.90
39033;DHT22;24794;51.982;5.878;2024-03-02T05:27:50;8.50;99.90
39033;DHT22;24794;51.982;5.878;2024-03-02T05:28:51;8.50;99.90
39033;DHT22;24794;51.982;5.878;2024-03-02T05:29:52;8.50;99.90
39033;DHT22;24794;51.982;5.878;2024-03-02T05:30:52;8.50;99.90
39033;DHT22;24794;51.982;5.878;2024-03-02T05:31:52;8.50;99.90
39033;DHT22;24794;51.982;5.878;2024-03-02T05:32:53;8.50;99.90
39033;DHT22;24794;51.982;5.878;2024-03-02T05:33:54;8.50;99.90
39033;DHT22;24794;51.982;5.878;2024-03-02T05:34:54;8.50;99.90
39033;DHT22;24794;51.982;5.878;2024-03-02T05:35:55;8.40;99.90
39033;DHT22;24794;51.982;5.878;2024-03-02T05:36:56;8.50;99.90
39033;DHT22;24794;51.982;5.878;2024-03-02T05:37:58;8.40;99.90
39033;DHT22;24794;51.982;5.878;2024-03-02T05:38:59;8.40;99.90
39033;DHT22;24794;51.982;5.878;2024-03-02T05:39:59;8.40;99.90
39033;DHT22;24794;51.982;5.878;2024-03-02T05:41:00;8.40;99.90
39033;DHT22;24794;51.982;5.878;2024-03-02T05:42:01;8.40;99.90
39033;DHT22;24794;51.982;5.878;2024-03-02T05:43:01;8.40;99.90
39033;DHT22;24794;51.982;5.878;2024-03-02T05:44:02;8.30;99.90
39033;DHT22;24794;51.982;5.878;2024-03-02T05:45:03;8.30;99.90
39033;DHT22;24794;51.982;5.878;2024-03-02T05:46:03;8.30;99.90
39033;DHT22;24794;51.982;5.878;2024-03-02T05:47:04;8.30;99.90
39033;DHT22;24794;51.982;5.878;2024-03-02T05:48:07;8.30;99.90
39033;DHT22;24794;51.982;5.878;2024-03-02T05:49:08;8.30;99.90
39033;DHT22;24794;51.982;5.878;2024-03-02T05:50:08;8.30;99.90
39033;DHT22;24794;51.982;5.878;2024-03-02T05:51:09;8.30;99.90
39033;DHT22;24794;51.982;5.878;2024-03-02T05:52:10;8.30;99.90
39033;DHT22;24794;51.982;5.878;2024-03-02T05:53:11;8.30;99.90
39033;DHT22;24794;51.982;5.878;2024-03-02T05:54:12;8.30;99.90
39033;DHT22;24794;51.982;5.878;2024-03-02T05:55:13;8.30;99.90
39033;DHT22;24794;51.982;5.878;2024-03-02T05:56:13;8.30;99.90
39033;DHT22;24794;51.982;5.878;2024-03-02T05:57:14;8.30;99.90
39033;DHT22;24794;51.982;5.878;2024-03-02T05:58:22;8.30;99.90
39033;DHT22;24794;51.982;5.878;2024-03-02T05:59:23;8.30;99.90
39033;DHT22;24794;51.982;5.878;2024-03-02T06:00:23;8.30;99.90
39033;DHT22;24794;51.982;5.878;2024-03-02T06:01:24;8.30;99.90
39033;DHT22;24794;51.982;5.878;2024-03-02T06:02:28;8.30;99.90
39033;DHT22;24794;51.982;5.878;2024-03-02T06:03:29;8.30;99.90
39033;DHT22;24794;51.982;5.878;2024-03-02T06:04:29;8.30;99.90
39033;DHT22;24794;51.982;5.878;2024-03-02T06:05:30;8.30;99.90
39033;DHT22;24794;51.982;5.878;2024-03-02T06:06:30;8.30;99.90
39033;DHT22;24794;51.982;5.878;2024-03-02T06:07:32;8.30;99.90
39033;DHT22;24794;51.982;5.878;2024-03-02T06:08:33;8.40;99.90
39033;DHT22;24794;51.982;5.878;2024-03-02T06:09:34;8.30;99.90
39033;DHT22;24794;51.982;5.878;2024-03-02T06:10:34;8.30;99.90
39033;DHT22;24794;51.982;5.878;2024-03-02T06:11:35;8.30;99.90
39033;DHT22;24794;51.982;5.878;2024-03-02T06:12:36;8.30;99.90
39033;DHT22;24794;51.982;5.878;2024-03-02T06:13:37;8.30;99.90
39033;DHT22;24794;51.982;5.878;2024-03-02T06:14:37;8.30;99.90
39033;DHT22;24794;51.982;5.878;2024-03-02T06:15:38;8.30;99.90
39033;DHT22;24794;51.982;5.878;2024-03-02T06:16:38;8.30;99.90
39033;DHT22;24794;51.982;5.878;2024-03-02T06:17:39;8.30;99.90
39033;DHT22;24794;51.982;5.878;2024-03-02T06:18:39;8.30;99.90
39033;DHT22;24794;51.982;5.878;2024-03-02T06:19:40;8.30;99.90
39033;DHT22;24794;51.982;5.878;2024-03-02T06:20:41;8.30;99.90
39033;DHT22;24794;51.982;5.878;2024-03-02T06:21:41;8.30;99.90
39033;DHT22;24794;51.982;5.878;2024-03-02T06:22:42;8.30;99.90
39033;DHT22;24794;51.982;5.878;2024-03-02T06:23:42;8.30;99.90
39033;DHT22;24794;51.982;5.878;2024-03-02T06:24:43;8.30;99.90
39033;DHT22;24794;51.982;5.878;2024-03-02T06:25:43;8.30;99.90
39033;DHT22;24794;51.982;5.878;2024-03-02T06:26:44;8.30;99.90
39033;DHT22;24794;51.982;5.878;2024-03-02T06:27:44;8.20;99.90
39033;DHT22;24794;51.982;5.878;2024-03-02T06:28:45;8.30;99.90
39033;DHT22;24794;51.982;5.878;2024-03-02T06:29:46;8.20;99.90
39033;DHT22;24794;51.982;5.878;2024-03-02T06:30:46;8.30;99.90
39033;DHT22;24794;51.982;5.878;2024-03-02T06:31:47;8.20;99.90
39033;DHT22;24794;51.982;5.878;2024-03-02T06:32:47;8.30;99.90